sensor_id;sensor_type;location;lat;lon;timestamp;P1;durP1;ratioP1;P2;durP2;ratioP2
7203;SDS011;3643;52.460;13.322;2022-10-17T03:50:30;5.83;;;5.23;;
7203;SDS011;3643;52.460;13.322;2022-10-17T03:52:59;5.73;;;5.20;;
7203;SDS011;3643;52.460;13.322;2022-10-17T03:55:27;6.07;;;5.43;;
7203;SDS011;3643;52.460;13.322;2022-10-17T03:57:56;8.53;;;6.33;;
7203;SDS011;3643;52.460;13.322;2022-10-17T04:00:24;7.67;;;5.90;;
7203;SDS011;3643;52.460;13.322;2022-10-17T04:02:53;6.20;;;5.60;;
7203;SDS011;3643;52.460;13.322;2022-10-17T04:05:21;6.10;;;4.97;;
7203;SDS011;3643;52.460;13.322;2022-10-17T04:07:51;6.53;;;5.37;;
7203;SDS011;3643;52.460;13.322;2022-10-17T04:10:19;6.17;;;5.27;;
7203;SDS011;3643;52.460;13.322;2022-10-17T04:12:47;5.70;;;4.60;;
7203;SDS011;3643;52.460;13.322;2022-10-17T04:15:16;7.87;;;5.53;;
7203;SDS011;3643;52.460;13.322;2022-10-17T04:17:45;6.83;;;5.67;;
7203;SDS011;3643;52.460;13.322;2022-10-17T04:20:14;5.50;;;4.83;;
7203;SDS011;3643;52.460;13.322;2022-10-17T04:22:42;7.00;;;6.30;;
7203;SDS011;3643;52.460;13.322;2022-10-17T04:25:12;6.57;;;5.53;;
7203;SDS011;3643;52.460;13.322;2022-10-17T04:27:40;8.90;;;5.70;;
7203;SDS011;3643;52.460;13.322;2022-10-17T04:30:09;5.80;;;5.30;;
7203;SDS011;3643;52.460;13.322;2022-10-17T04:32:37;6.73;;;6.03;;
7203;SDS011;3643;52.460;13.322;2022-10-17T04:35:06;8.77;;;5.50;;
7203;SDS011;3643;52.460;13.322;2022-10-17T04:37:35;11.23;;;7.10;;
7203;SDS011;3643;52.460;13.322;2022-10-17T04:40:04;7.80;;;6.27;;
7203;SDS011;3643;52.460;13.322;2022-10-17T04:42:34;7.37;;;6.10;;
7203;SDS011;3643;52.460;13.322;2022-10-17T04:45:03;6.77;;;6.03;;
7203;SDS011;3643;52.460;13.322;2022-10-17T04:47:32;9.63;;;6.93;;
7203;SDS011;3643;52.460;13.322;2022-10-17T04:50:01;8.33;;;6.67;;
7203;SDS011;3643;52.460;13.322;2022-10-17T04:52:30;9.77;;;6.47;;
7203;SDS011;3643;52.460;13.322;2022-10-17T04:54:59;9.07;;;6.20;;
7203;SDS011;3643;52.460;13.322;2022-10-17T04:57:27;9.67;;;7.10;;
7203;SDS011;3643;52.460;13.322;2022-10-17T04:59:57;9.73;;;6.13;;
7203;SDS011;3643;52.460;13.322;2022-10-17T05:02:25;9.70;;;6.43;;
7203;SDS011;3643;52.460;13.322;2022-10-17T05:04:54;6.93;;;6.13;;
7203;SDS011;3643;52.460;13.322;2022-10-17T05:07:22;8.60;;;6.90;;
7203;SDS011;3643;52.460;13.322;2022-10-17T05:09:51;8.43;;;6.60;;
7203;SDS011;3643;52.460;13.322;2022-10-17T05:12:19;7.40;;;6.57;;
7203;SDS011;3643;52.460;13.322;2022-10-17T05:14:47;12.20;;;7.97;;
7203;SDS011;3643;52.460;13.322;2022-10-17T05:17:17;7.97;;;6.90;;
7203;SDS011;3643;52.460;13.322;2022-10-17T05:19:45;9.23;;;7.13;;
7203;SDS011;3643;52.460;13.322;2022-10-17T05:22:14;6.87;;;6.13;;
7203;SDS011;3643;52.460;13.322;2022-10-17T05:24:42;9.47;;;7.20;;
7203;SDS011;3643;52.460;13.322;2022-10-17T05:27:13;7.63;;;6.47;;
7203;SDS011;3643;52.460;13.322;2022-10-17T05:29:42;8.77;;;7.80;;
7203;SDS011;3643;52.460;13.322;2022-10-17T05:32:11;8.87;;;7.40;;
7203;SDS011;3643;52.460;13.322;2022-10-17T05:34:42;8.00;;;7.10;;
7203;SDS011;3643;52.460;13.322;2022-10-17T05:37:12;7.77;;;6.60;;
7203;SDS011;3643;52.460;13.322;2022-10-17T05:39:40;7.10;;;6.43;;
7203;SDS011;3643;52.460;13.322;2022-10-17T05:42:14;8.27;;;6.13;;
7203;SDS011;3643;52.460;13.322;2022-10-17T05:44:42;7.70;;;6.90;;
7203;SDS011;3643;52.460;13.322;2022-10-17T05:47:11;8.07;;;7.23;;
7203;SDS011;3643;52.460;13.322;2022-10-17T05:49:39;6.90;;;6.13;;
7203;SDS011;3643;52.460;13.322;2022-10-17T05:52:17;7.07;;;6.20;;
7203;SDS011;3643;52.460;13.322;2022-10-17T05:54:45;7.33;;;5.80;;
7203;SDS011;3643;52.460;13.322;2022-10-17T05:57:14;12.13;;;7.40;;
7203;SDS011;3643;52.460;13.322;2022-10-17T05:59:42;8.50;;;6.30;;
7203;SDS011;3643;52.460;13.322;2022-10-17T06:02:11;8.23;;;6.83;;
7203;SDS011;3643;52.460;13.322;2022-10-17T06:04:41;6.07;;;5.57;;
7203;SDS011;3643;52.460;13.322;2022-10-17T06:07:11;6.43;;;5.77;;
7203;SDS011;3643;52.460;13.322;2022-10-17T06:09:40;6.37;;;5.43;;
7203;SDS011;3643;52.460;13.322;2022-10-17T06:12:08;7.27;;;6.00;;
7203;SDS011;3643;52.460;13.322;2022-10-17T06:14:37;8.10;;;6.27;;
7203;SDS011;3643;52.460;13.322;2022-10-17T06:17:05;7.73;;;6.53;;
7203;SDS011;3643;52.460;13.322;2022-10-17T06:19:41;7.83;;;6.00;;
7203;SDS011;3643;52.460;13.322;2022-10-17T06:22:10;7.37;;;6.30;;
7203;SDS011;3643;52.460;13.322;2022-10-17T06:24:39;7.87;;;6.07;;
7203;SDS011;3643;52.460;13.322;2022-10-17T06:27:08;9.37;;;6.30;;
7203;SDS011;3643;52.460;13.322;2022-10-17T06:29:37;6.23;;;5.53;;
7203;SDS011;3643;52.460;13.322;2022-10-17T06:32:06;8.83;;;5.70;;
7203;SDS011;3643;52.460;13.322;2022-10-17T06:34:43;6.27;;;5.67;;
7203;SDS011;3643;52.460;13.322;2022-10-17T06:37:11;6.77;;;5.40;;
7203;SDS011;3643;52.460;13.322;2022-10-17T06:39:39;7.60;;;5.93;;
7203;SDS011;3643;52.460;13.322;2022-10-17T06:42:08;5.63;;;4.97;;
7203;SDS011;3643;52.460;13.322;2022-10-17T06:44:36;5.40;;;4.63;;
7203;SDS011;3643;52.460;13.322;2022-10-17T06:47:06;5.53;;;4.50;;
7203;SDS011;3643;52.460;13.322;2022-10-17T06:49:36;4.23;;;3.83;;
7203;SDS011;3643;52.460;13.322;2022-10-17T06:52:06;6.63;;;4.50;;
7203;SDS011;3643;52.460;13.322;2022-10-17T06:54:35;4.50;;;4.10;;
7203;SDS011;3643;52.460;13.322;2022-10-17T06:57:03;4.53;;;4.13;;
7203;SDS011;3643;52.460;13.322;2022-10-17T06:59:32;6.27;;;4.30;;
7203;SDS011;3643;52.460;13.322;2022-10-17T07:02:00;4.40;;;4.00;;
7203;SDS011;3643;52.460;13.322;2022-10-17T07:04:30;4.93;;;4.47;;
7203;SDS011;3643;52.460;13.322;2022-10-17T07:06:59;4.83;;;4.40;;
7203;SDS011;3643;52.460;13.322;2022-10-17T07:09:30;6.63;;;4.73;;
7203;SDS011;3643;52.460;13.322;2022-10-17T07:11:59;7.33;;;5.13;;
7203;SDS011;3643;52.460;13.322;2022-10-17T07:14:28;7.00;;;5.10;;
7203;SDS011;3643;52.460;13.322;2022-10-17T07:16:58;8.37;;;4.67;;
7203;SDS011;3643;52.460;13.322;2022-10-17T07:19:27;6.20;;;4.53;;
7203;SDS011;3643;52.460;13.322;2022-10-17T07:21:56;9.00;;;5.27;;
7203;SDS011;3643;52.460;13.322;2022-10-17T07:24:24;5.27;;;4.73;;
7203;SDS011;3643;52.460;13.322;2022-10-17T07:26:54;7.03;;;5.00;;
7203;SDS011;3643;52.460;13.322;2022-10-17T07:29:23;11.27;;;7.83;;
7203;SDS011;3643;52.460;13.322;2022-10-17T07:31:52;7.83;;;5.30;;
7203;SDS011;3643;52.460;13.322;2022-10-17T07:34:22;4.60;;;4.20;;
7203;SDS011;3643;52.460;13.322;2022-10-17T07:36:52;4.97;;;4.53;;
7203;SDS011;3643;52.460;13.322;2022-10-17T07:39:21;6.40;;;4.63;;
7203;SDS011;3643;52.460;13.322;2022-10-17T07:41:50;6.50;;;4.63;;
7203;SDS011;3643;52.460;13.322;2022-10-17T07:44:20;5.07;;;4.50;;
7203;SDS011;3643;52.460;13.322;2022-10-17T07:46:48;6.37;;;4.97;;
7203;SDS011;3643;52.460;13.322;2022-10-17T07:49:17;7.63;;;4.70;;
7203;SDS011;3643;52.460;13.322;2022-10-17T07:51:46;6.43;;;4.20;;
7203;SDS011;3643;52.460;13.322;2022-10-17T07:54:15;6.23;;;4.43;;
7203;SDS011;3643;52.460;13.322;2022-10-17T07:56:46;4.53;;;3.70;;
7203;SDS011;3643;52.460;13.322;2022-10-17T07:59:16;4.63;;;3.70;;
7203;SDS011;3643;52.460;13.322;2022-10-17T08:01:47;5.57;;;4.53;;
7203;SDS011;3643;52.460;13.322;2022-10-17T08:04:16;5.53;;;3.60;;
7203;SDS011;3643;52.460;13.322;2022-10-17T08:06:44;4.90;;;3.93;;
7203;SDS011;3643;52.460;13.322;2022-10-17T08:09:18;5.10;;;3.73;;
7203;SDS011;3643;52.460;13.322;2022-10-17T08:11:47;4.97;;;3.60;;
7203;SDS011;3643;52.460;13.322;2022-10-17T08:14:15;5.73;;;3.80;;
7203;SDS011;3643;52.460;13.322;2022-10-17T08:16:44;4.40;;;3.37;;
7203;SDS011;3643;52.460;13.322;2022-10-17T08:19:14;7.67;;;3.90;;
7203;SDS011;3643;52.460;13.322;2022-10-17T08:21:42;4.63;;;3.90;;
7203;SDS011;3643;52.460;13.322;2022-10-17T08:24:12;7.73;;;4.20;;
7203;SDS011;3643;52.460;13.322;2022-10-17T08:26:40;4.43;;;3.50;;
7203;SDS011;3643;52.460;13.322;2022-10-17T08:29:13;6.20;;;3.80;;
7203;SDS011;3643;52.460;13.322;2022-10-17T08:31:44;4.20;;;3.70;;
7203;SDS011;3643;52.460;13.322;2022-10-17T08:34:16;4.40;;;3.50;;
7203;SDS011;3643;52.460;13.322;2022-10-17T08:36:45;3.80;;;3.20;;
7203;SDS011;3643;52.460;13.322;2022-10-17T08:39:13;4.67;;;3.50;;
7203;SDS011;3643;52.460;13.322;2022-10-17T08:41:45;5.17;;;3.70;;
7203;SDS011;3643;52.460;13.322;2022-10-17T08:44:24;6.47;;;5.40;;
7203;SDS011;3643;52.460;13.322;2022-10-17T08:47:04;8.70;;;3.40;;
7203;SDS011;3643;52.460;13.322;2022-10-17T08:49:48;4.77;;;3.27;;
7203;SDS011;3643;52.460;13.322;2022-10-17T08:52:20;4.43;;;3.50;;
7203;SDS011;3643;52.460;13.322;2022-10-17T08:54:56;5.17;;;3.20;;
7203;SDS011;3643;52.460;13.322;2022-10-17T08:57:25;3.73;;;3.30;;
7203;SDS011;3643;52.460;13.322;2022-10-17T08:59:54;3.70;;;3.07;;
7203;SDS011;3643;52.460;13.322;2022-10-17T09:02:27;5.90;;;2.73;;
7203;SDS011;3643;52.460;13.322;2022-10-17T09:08:08;3.27;;;2.70;;
7203;SDS011;3643;52.460;13.322;2022-10-17T09:10:52;4.03;;;2.90;;
7203;SDS011;3643;52.460;13.322;2022-10-17T09:13:30;4.77;;;3.20;;
7203;SDS011;3643;52.460;13.322;2022-10-17T09:16:13;3.43;;;2.67;;
7203;SDS011;3643;52.460;13.322;2022-10-17T09:19:00;3.17;;;2.53;;
7203;SDS011;3643;52.460;13.322;2022-10-17T09:21:38;3.83;;;2.63;;
7203;SDS011;3643;52.460;13.322;2022-10-17T09:24:13;4.77;;;2.80;;
7203;SDS011;3643;52.460;13.322;2022-10-17T09:26:45;4.77;;;3.13;;
7203;SDS011;3643;52.460;13.322;2022-10-17T09:29:14;6.40;;;3.20;;
7203;SDS011;3643;52.460;13.322;2022-10-17T09:31:48;4.43;;;3.17;;
7203;SDS011;3643;52.460;13.322;2022-10-17T09:34:28;5.63;;;2.93;;
7203;SDS011;3643;52.460;13.322;2022-10-17T09:37:00;5.27;;;2.70;;
7203;SDS011;3643;52.460;13.322;2022-10-17T09:39:29;3.53;;;3.00;;
7203;SDS011;3643;52.460;13.322;2022-10-17T09:41:59;7.57;;;3.33;;
7203;SDS011;3643;52.460;13.322;2022-10-17T09:44:29;4.03;;;2.93;;
7203;SDS011;3643;52.460;13.322;2022-10-17T09:47:06;5.10;;;2.97;;
7203;SDS011;3643;52.460;13.322;2022-10-17T09:49:47;5.80;;;2.87;;
7203;SDS011;3643;52.460;13.322;2022-10-17T09:52:20;4.33;;;3.23;;
7203;SDS011;3643;52.460;13.322;2022-10-17T09:54:54;3.93;;;2.90;;
7203;SDS011;3643;52.460;13.322;2022-10-17T09:57:26;4.83;;;2.80;;
7203;SDS011;3643;52.460;13.322;2022-10-17T09:59:56;7.20;;;3.53;;
7203;SDS011;3643;52.460;13.322;2022-10-17T10:02:27;3.77;;;3.00;;
7203;SDS011;3643;52.460;13.322;2022-10-17T10:04:59;4.27;;;2.57;;
7203;SDS011;3643;52.460;13.322;2022-10-17T10:07:34;5.00;;;2.93;;
7203;SDS011;3643;52.460;13.322;2022-10-17T10:10:06;4.07;;;2.80;;
7203;SDS011;3643;52.460;13.322;2022-10-17T10:13:06;4.97;;;2.67;;
7203;SDS011;3643;52.460;13.322;2022-10-17T10:15:46;3.87;;;2.77;;
7203;SDS011;3643;52.460;13.322;2022-10-17T10:18:27;3.27;;;2.73;;
7203;SDS011;3643;52.460;13.322;2022-10-17T10:21:02;6.97;;;3.80;;
7203;SDS011;3643;52.460;13.322;2022-10-17T10:23:35;6.40;;;2.70;;
7203;SDS011;3643;52.460;13.322;2022-10-17T10:26:13;7.30;;;4.87;;
7203;SDS011;3643;52.460;13.322;2022-10-17T10:28:51;5.97;;;3.40;;
7203;SDS011;3643;52.460;13.322;2022-10-17T10:31:29;3.17;;;2.77;;
7203;SDS011;3643;52.460;13.322;2022-10-17T10:36:51;3.40;;;2.37;;
7203;SDS011;3643;52.460;13.322;2022-10-17T10:39:30;4.53;;;2.70;;
7203;SDS011;3643;52.460;13.322;2022-10-17T10:42:06;5.60;;;2.50;;
7203;SDS011;3643;52.460;13.322;2022-10-17T10:44:44;4.13;;;2.83;;
7203;SDS011;3643;52.460;13.322;2022-10-17T10:47:17;4.50;;;3.73;;
7203;SDS011;3643;52.460;13.322;2022-10-17T10:49:49;3.57;;;2.60;;
7203;SDS011;3643;52.460;13.322;2022-10-17T10:55:16;3.13;;;2.50;;
7203;SDS011;3643;52.460;13.322;2022-10-17T10:57:51;5.30;;;3.20;;
7203;SDS011;3643;52.460;13.322;2022-10-17T11:00:24;4.63;;;2.30;;
7203;SDS011;3643;52.460;13.322;2022-10-17T11:02:58;4.60;;;3.10;;
7203;SDS011;3643;52.460;13.322;2022-10-17T11:05:40;7.20;;;3.00;;
7203;SDS011;3643;52.460;13.322;2022-10-17T11:08:14;6.47;;;2.57;;
7203;SDS011;3643;52.460;13.322;2022-10-17T11:10:57;3.97;;;2.50;;
7203;SDS011;3643;52.460;13.322;2022-10-17T11:13:35;5.00;;;2.53;;
7203;SDS011;3643;52.460;13.322;2022-10-17T11:16:11;4.37;;;2.43;;
7203;SDS011;3643;52.460;13.322;2022-10-17T11:18:49;5.40;;;3.10;;
7203;SDS011;3643;52.460;13.322;2022-10-17T11:21:22;2.57;;;2.37;;
7203;SDS011;3643;52.460;13.322;2022-10-17T11:23:57;4.10;;;2.77;;
7203;SDS011;3643;52.460;13.322;2022-10-17T11:26:37;4.10;;;3.50;;
7203;SDS011;3643;52.460;13.322;2022-10-17T11:29:09;5.07;;;2.60;;
7203;SDS011;3643;52.460;13.322;2022-10-17T11:31:40;3.40;;;3.03;;
7203;SDS011;3643;52.460;13.322;2022-10-17T11:34:15;5.67;;;3.10;;
7203;SDS011;3643;52.460;13.322;2022-10-17T11:36:47;5.30;;;2.87;;
7203;SDS011;3643;52.460;13.322;2022-10-17T11:39:21;5.80;;;3.03;;
7203;SDS011;3643;52.460;13.322;2022-10-17T11:41:58;2.97;;;2.53;;
7203;SDS011;3643;52.460;13.322;2022-10-17T11:44:33;4.80;;;2.90;;
7203;SDS011;3643;52.460;13.322;2022-10-17T11:47:03;2.70;;;2.30;;
7203;SDS011;3643;52.460;13.322;2022-10-17T11:49:39;3.07;;;2.83;;
7203;SDS011;3643;52.460;13.322;2022-10-17T11:52:21;5.63;;;2.87;;
7203;SDS011;3643;52.460;13.322;2022-10-17T11:55:19;3.13;;;2.80;;
7203;SDS011;3643;52.460;13.322;2022-10-17T11:58:04;4.90;;;2.90;;
7203;SDS011;3643;52.460;13.322;2022-10-17T12:01:04;4.67;;;3.20;;
7203;SDS011;3643;52.460;13.322;2022-10-17T12:03:52;4.20;;;3.20;;
7203;SDS011;3643;52.460;13.322;2022-10-17T12:06:47;3.30;;;3.00;;
7203;SDS011;3643;52.460;13.322;2022-10-17T12:09:25;4.57;;;3.13;;
7203;SDS011;3643;52.460;13.322;2022-10-17T12:12:00;5.20;;;3.47;;
7203;SDS011;3643;52.460;13.322;2022-10-17T12:14:39;6.70;;;3.40;;
7203;SDS011;3643;52.460;13.322;2022-10-17T12:20:23;4.13;;;2.60;;
7203;SDS011;3643;52.460;13.322;2022-10-17T12:22:54;4.37;;;2.90;;
7203;SDS011;3643;52.460;13.322;2022-10-17T12:25:26;6.27;;;3.40;;
7203;SDS011;3643;52.460;13.322;2022-10-17T12:28:13;4.50;;;2.57;;
7203;SDS011;3643;52.460;13.322;2022-10-17T12:30:53;3.03;;;2.73;;
7203;SDS011;3643;52.460;13.322;2022-10-17T12:33:33;3.80;;;2.90;;
7203;SDS011;3643;52.460;13.322;2022-10-17T12:42:31;7.20;;;3.50;;
7203;SDS011;3643;52.460;13.322;2022-10-17T12:54:36;6.20;;;2.77;;
7203;SDS011;3643;52.460;13.322;2022-10-17T12:57:33;6.30;;;3.30;;
7203;SDS011;3643;52.460;13.322;2022-10-17T13:00:14;4.00;;;2.70;;
7203;SDS011;3643;52.460;13.322;2022-10-17T13:02:47;4.67;;;2.73;;
7203;SDS011;3643;52.460;13.322;2022-10-17T13:05:23;3.83;;;3.40;;
7203;SDS011;3643;52.460;13.322;2022-10-17T13:07:55;4.60;;;3.00;;
7203;SDS011;3643;52.460;13.322;2022-10-17T13:10:28;4.57;;;2.83;;
7203;SDS011;3643;52.460;13.322;2022-10-17T13:13:01;3.63;;;3.23;;
7203;SDS011;3643;52.460;13.322;2022-10-17T13:15:33;6.60;;;3.20;;
7203;SDS011;3643;52.460;13.322;2022-10-17T13:18:03;3.93;;;2.93;;
7203;SDS011;3643;52.460;13.322;2022-10-17T13:20:34;5.23;;;2.57;;
7203;SDS011;3643;52.460;13.322;2022-10-17T13:23:02;5.73;;;2.70;;
7203;SDS011;3643;52.460;13.322;2022-10-17T13:25:31;6.60;;;3.20;;
7203;SDS011;3643;52.460;13.322;2022-10-17T13:28:06;3.83;;;2.47;;
7203;SDS011;3643;52.460;13.322;2022-10-17T13:30:44;3.37;;;3.00;;
7203;SDS011;3643;52.460;13.322;2022-10-17T13:33:18;5.80;;;2.70;;
7203;SDS011;3643;52.460;13.322;2022-10-17T13:35:59;3.10;;;2.60;;
7203;SDS011;3643;52.460;13.322;2022-10-17T13:38:30;4.73;;;2.43;;
7203;SDS011;3643;52.460;13.322;2022-10-17T13:41:08;3.47;;;2.40;;
7203;SDS011;3643;52.460;13.322;2022-10-17T13:44:00;6.00;;;2.90;;
7203;SDS011;3643;52.460;13.322;2022-10-17T13:46:35;5.47;;;4.27;;
7203;SDS011;3643;52.460;13.322;2022-10-17T13:49:09;6.60;;;2.80;;
7203;SDS011;3643;52.460;13.322;2022-10-17T13:51:45;3.27;;;2.57;;
7203;SDS011;3643;52.460;13.322;2022-10-17T13:54:18;2.90;;;2.60;;
7203;SDS011;3643;52.460;13.322;2022-10-17T13:56:59;7.03;;;3.70;;
7203;SDS011;3643;52.460;13.322;2022-10-17T13:59:29;4.47;;;2.60;;
7203;SDS011;3643;52.460;13.322;2022-10-17T14:02:03;7.20;;;2.57;;
7203;SDS011;3643;52.460;13.322;2022-10-17T14:04:38;4.43;;;2.60;;
7203;SDS011;3643;52.460;13.322;2022-10-17T14:07:29;5.53;;;2.60;;
7203;SDS011;3643;52.460;13.322;2022-10-17T14:10:24;5.53;;;2.83;;
7203;SDS011;3643;52.460;13.322;2022-10-17T14:12:59;3.97;;;2.67;;
7203;SDS011;3643;52.460;13.322;2022-10-17T14:15:32;3.33;;;2.90;;
7203;SDS011;3643;52.460;13.322;2022-10-17T14:18:02;6.13;;;2.90;;
7203;SDS011;3643;52.460;13.322;2022-10-17T14:20:34;3.33;;;2.73;;
7203;SDS011;3643;52.460;13.322;2022-10-17T14:23:32;5.30;;;3.73;;
7203;SDS011;3643;52.460;13.322;2022-10-17T14:26:07;6.23;;;3.47;;
7203;SDS011;3643;52.460;13.322;2022-10-17T14:28:38;6.00;;;3.27;;
7203;SDS011;3643;52.460;13.322;2022-10-17T14:31:20;3.57;;;2.73;;
7203;SDS011;3643;52.460;13.322;2022-10-17T14:33:55;5.93;;;2.70;;
7203;SDS011;3643;52.460;13.322;2022-10-17T14:36:30;4.20;;;2.70;;
7203;SDS011;3643;52.460;13.322;2022-10-17T14:39:03;4.30;;;3.20;;
7203;SDS011;3643;52.460;13.322;2022-10-17T14:41:40;4.43;;;2.80;;
7203;SDS011;3643;52.460;13.322;2022-10-17T14:44:17;4.00;;;3.00;;
7203;SDS011;3643;52.460;13.322;2022-10-17T14:46:52;3.37;;;2.53;;
7203;SDS011;3643;52.460;13.322;2022-10-17T14:49:26;3.53;;;2.50;;
7203;SDS011;3643;52.460;13.322;2022-10-17T14:54:59;5.60;;;2.73;;
7203;SDS011;3643;52.460;13.322;2022-10-17T14:57:47;4.37;;;2.50;;
7203;SDS011;3643;52.460;13.322;2022-10-17T15:00:16;5.07;;;2.90;;
7203;SDS011;3643;52.460;13.322;2022-10-17T15:02:50;3.17;;;2.53;;
7203;SDS011;3643;52.460;13.322;2022-10-17T15:05:20;2.57;;;2.33;;
7203;SDS011;3643;52.460;13.322;2022-10-17T15:07:50;11.03;;;3.07;;
7203;SDS011;3643;52.460;13.322;2022-10-17T15:10:26;3.00;;;2.60;;
7203;SDS011;3643;52.460;13.322;2022-10-17T15:12:59;2.50;;;2.30;;
7203;SDS011;3643;52.460;13.322;2022-10-17T15:15:49;3.83;;;2.63;;
7203;SDS011;3643;52.460;13.322;2022-10-17T15:18:19;4.93;;;2.77;;
7203;SDS011;3643;52.460;13.322;2022-10-17T15:20:49;6.33;;;2.80;;
7203;SDS011;3643;52.460;13.322;2022-10-17T15:23:32;3.30;;;2.60;;
7203;SDS011;3643;52.460;13.322;2022-10-17T15:26:02;7.33;;;5.67;;
7203;SDS011;3643;52.460;13.322;2022-10-17T15:28:32;11.07;;;6.83;;
7203;SDS011;3643;52.460;13.322;2022-10-17T15:31:01;7.33;;;5.30;;
7203;SDS011;3643;52.460;13.322;2022-10-17T15:33:30;5.73;;;4.03;;
7203;SDS011;3643;52.460;13.322;2022-10-17T15:36:00;5.03;;;3.20;;
7203;SDS011;3643;52.460;13.322;2022-10-17T15:38:29;3.10;;;2.80;;
7203;SDS011;3643;52.460;13.322;2022-10-17T15:40:58;3.87;;;2.73;;
7203;SDS011;3643;52.460;13.322;2022-10-17T15:43:28;2.63;;;2.43;;
7203;SDS011;3643;52.460;13.322;2022-10-17T15:45:57;5.17;;;2.80;;
7203;SDS011;3643;52.460;13.322;2022-10-17T15:48:28;3.10;;;2.37;;
7203;SDS011;3643;52.460;13.322;2022-10-17T15:50:58;3.20;;;2.53;;
7203;SDS011;3643;52.460;13.322;2022-10-17T15:53:27;3.80;;;2.30;;
7203;SDS011;3643;52.460;13.322;2022-10-17T15:55:57;3.63;;;2.23;;
7203;SDS011;3643;52.460;13.322;2022-10-17T15:58:28;2.47;;;2.27;;
7203;SDS011;3643;52.460;13.322;2022-10-17T16:01:02;3.83;;;2.60;;
7203;SDS011;3643;52.460;13.322;2022-10-17T16:03:32;3.33;;;2.50;;
7203;SDS011;3643;52.460;13.322;2022-10-17T16:06:01;3.43;;;2.80;;
7203;SDS011;3643;52.460;13.322;2022-10-17T16:08:37;2.63;;;2.40;;
7203;SDS011;3643;52.460;13.322;2022-10-17T16:11:08;2.90;;;2.70;;
7203;SDS011;3643;52.460;13.322;2022-10-17T16:13:44;4.07;;;2.77;;
7203;SDS011;3643;52.460;13.322;2022-10-17T16:16:17;4.47;;;2.97;;
7203;SDS011;3643;52.460;13.322;2022-10-17T16:18:47;3.43;;;2.83;;
7203;SDS011;3643;52.460;13.322;2022-10-17T16:21:16;2.80;;;2.60;;
7203;SDS011;3643;52.460;13.322;2022-10-17T16:23:47;3.23;;;2.40;;
7203;SDS011;3643;52.460;13.322;2022-10-17T16:26:15;3.17;;;2.67;;
7203;SDS011;3643;52.460;13.322;2022-10-17T16:28:45;3.70;;;2.37;;
7203;SDS011;3643;52.460;13.322;2022-10-17T16:31:17;3.23;;;2.50;;
7203;SDS011;3643;52.460;13.322;2022-10-17T16:33:48;4.70;;;3.13;;
7203;SDS011;3643;52.460;13.322;2022-10-17T16:36:18;5.77;;;2.47;;
7203;SDS011;3643;52.460;13.322;2022-10-17T16:38:47;4.30;;;2.53;;
7203;SDS011;3643;52.460;13.322;2022-10-17T16:41:21;2.90;;;2.60;;
7203;SDS011;3643;52.460;13.322;2022-10-17T16:43:52;3.20;;;2.27;;
7203;SDS011;3643;52.460;13.322;2022-10-17T16:46:22;4.87;;;2.27;;
7203;SDS011;3643;52.460;13.322;2022-10-17T16:48:51;6.20;;;2.83;;
7203;SDS011;3643;52.460;13.322;2022-10-17T16:51:20;2.80;;;2.30;;
7203;SDS011;3643;52.460;13.322;2022-10-17T16:53:50;2.83;;;2.50;;
7203;SDS011;3643;52.460;13.322;2022-10-17T16:56:20;4.63;;;3.20;;
7203;SDS011;3643;52.460;13.322;2022-10-17T16:58:51;4.90;;;3.27;;
7203;SDS011;3643;52.460;13.322;2022-10-17T17:01:21;6.80;;;3.50;;
7203;SDS011;3643;52.460;13.322;2022-10-17T17:03:51;6.63;;;3.30;;
7203;SDS011;3643;52.460;13.322;2022-10-17T17:06:21;5.33;;;3.00;;
7203;SDS011;3643;52.460;13.322;2022-10-17T17:08:51;4.70;;;2.60;;
7203;SDS011;3643;52.460;13.322;2022-10-17T17:11:21;3.40;;;2.73;;
7203;SDS011;3643;52.460;13.322;2022-10-17T17:13:53;5.17;;;3.03;;
7203;SDS011;3643;52.460;13.322;2022-10-17T17:16:23;3.53;;;3.20;;
7203;SDS011;3643;52.460;13.322;2022-10-17T17:18:53;5.93;;;3.73;;
7203;SDS011;3643;52.460;13.322;2022-10-17T17:21:22;5.30;;;3.83;;
7203;SDS011;3643;52.460;13.322;2022-10-17T17:23:52;8.93;;;7.27;;
7203;SDS011;3643;52.460;13.322;2022-10-17T17:26:22;17.37;;;12.33;;
7203;SDS011;3643;52.460;13.322;2022-10-17T17:28:55;29.97;;;19.30;;
7203;SDS011;3643;52.460;13.322;2022-10-17T17:31:28;15.63;;;10.33;;
7203;SDS011;3643;52.460;13.322;2022-10-17T17:34:00;15.40;;;9.67;;
7203;SDS011;3643;52.460;13.322;2022-10-17T17:36:29;9.77;;;6.83;;
7203;SDS011;3643;52.460;13.322;2022-10-17T17:39:02;8.40;;;5.17;;
7203;SDS011;3643;52.460;13.322;2022-10-17T17:41:32;7.23;;;3.80;;
7203;SDS011;3643;52.460;13.322;2022-10-17T17:44:03;16.77;;;11.30;;
7203;SDS011;3643;52.460;13.322;2022-10-17T17:46:32;8.80;;;6.83;;
7203;SDS011;3643;52.460;13.322;2022-10-17T17:49:00;20.73;;;15.70;;
7203;SDS011;3643;52.460;13.322;2022-10-17T17:51:29;43.20;;;30.73;;
7203;SDS011;3643;52.460;13.322;2022-10-17T17:53:59;28.47;;;19.27;;
7203;SDS011;3643;52.460;13.322;2022-10-17T17:56:28;21.07;;;14.27;;
7203;SDS011;3643;52.460;13.322;2022-10-17T17:58:57;14.17;;;9.63;;
7203;SDS011;3643;52.460;13.322;2022-10-17T18:01:29;11.70;;;7.30;;
7203;SDS011;3643;52.460;13.322;2022-10-17T18:04:02;7.03;;;5.47;;
7203;SDS011;3643;52.460;13.322;2022-10-17T18:06:32;5.40;;;4.57;;
7203;SDS011;3643;52.460;13.322;2022-10-17T18:09:01;5.23;;;3.90;;
7203;SDS011;3643;52.460;13.322;2022-10-17T18:11:29;5.77;;;4.07;;
7203;SDS011;3643;52.460;13.322;2022-10-17T18:13:59;5.47;;;4.00;;
7203;SDS011;3643;52.460;13.322;2022-10-17T18:16:31;7.03;;;3.50;;
7203;SDS011;3643;52.460;13.322;2022-10-17T18:19:02;6.70;;;3.80;;
7203;SDS011;3643;52.460;13.322;2022-10-17T18:21:32;4.07;;;3.03;;
7203;SDS011;3643;52.460;13.322;2022-10-17T18:24:01;5.67;;;3.17;;
7203;SDS011;3643;52.460;13.322;2022-10-17T18:26:31;6.17;;;3.20;;
7203;SDS011;3643;52.460;13.322;2022-10-17T18:29:00;8.87;;;7.10;;
7203;SDS011;3643;52.460;13.322;2022-10-17T18:31:28;28.43;;;21.80;;
7203;SDS011;3643;52.460;13.322;2022-10-17T18:34:02;40.33;;;30.63;;
7203;SDS011;3643;52.460;13.322;2022-10-17T18:36:33;30.97;;;22.00;;
7203;SDS011;3643;52.460;13.322;2022-10-17T18:39:03;22.17;;;16.70;;
7203;SDS011;3643;52.460;13.322;2022-10-17T18:41:32;21.87;;;15.10;;
7203;SDS011;3643;52.460;13.322;2022-10-17T18:44:01;21.07;;;16.03;;
7203;SDS011;3643;52.460;13.322;2022-10-17T18:46:32;18.60;;;10.67;;
7203;SDS011;3643;52.460;13.322;2022-10-17T18:49:07;10.60;;;7.03;;
7203;SDS011;3643;52.460;13.322;2022-10-17T18:51:37;7.30;;;4.13;;
7203;SDS011;3643;52.460;13.322;2022-10-17T18:54:07;9.97;;;4.50;;
7203;SDS011;3643;52.460;13.322;2022-10-17T18:56:39;6.80;;;3.83;;
7203;SDS011;3643;52.460;13.322;2022-10-17T18:59:09;6.17;;;3.33;;
7203;SDS011;3643;52.460;13.322;2022-10-17T19:01:39;5.30;;;3.60;;
7203;SDS011;3643;52.460;13.322;2022-10-17T19:04:10;3.97;;;3.30;;
7203;SDS011;3643;52.460;13.322;2022-10-17T19:06:41;10.87;;;5.47;;
7203;SDS011;3643;52.460;13.322;2022-10-17T19:09:12;9.87;;;5.60;;
7203;SDS011;3643;52.460;13.322;2022-10-17T19:11:42;22.73;;;15.07;;
7203;SDS011;3643;52.460;13.322;2022-10-17T19:14:11;35.80;;;25.20;;
7203;SDS011;3643;52.460;13.322;2022-10-17T19:16:41;17.40;;;11.73;;
7203;SDS011;3643;52.460;13.322;2022-10-17T19:19:13;11.70;;;8.27;;
7203;SDS011;3643;52.460;13.322;2022-10-17T19:21:44;10.53;;;6.33;;
7203;SDS011;3643;52.460;13.322;2022-10-17T19:24:14;7.17;;;4.90;;
7203;SDS011;3643;52.460;13.322;2022-10-17T19:26:43;7.07;;;4.40;;
7203;SDS011;3643;52.460;13.322;2022-10-17T19:29:14;5.20;;;4.17;;
7203;SDS011;3643;52.460;13.322;2022-10-17T19:31:49;5.87;;;3.97;;
7203;SDS011;3643;52.460;13.322;2022-10-17T19:34:18;5.33;;;3.80;;
7203;SDS011;3643;52.460;13.322;2022-10-17T19:36:47;7.90;;;4.10;;
7203;SDS011;3643;52.460;13.322;2022-10-17T19:39:16;6.83;;;3.97;;
7203;SDS011;3643;52.460;13.322;2022-10-17T19:41:48;5.00;;;3.77;;
7203;SDS011;3643;52.460;13.322;2022-10-17T19:44:16;5.70;;;3.93;;
7203;SDS011;3643;52.460;13.322;2022-10-17T19:46:46;5.73;;;3.90;;
7203;SDS011;3643;52.460;13.322;2022-10-17T19:49:16;5.93;;;4.23;;
7203;SDS011;3643;52.460;13.322;2022-10-17T19:51:48;5.30;;;4.03;;